Aviation Digital Data Service (ADDS)

Output produced by METARs form (2137 UTC 22 October 2014)
found at http://aviationweather.gov/adds/metars/
 
KLEB 221729Z 2218/2318 02010KT 6SM -SHRA OVC025 
     FM230000 08015G25KT 3SM -RA BR OVC015